x

Buoy B01 - Western Maine Shelf (44030) Wave Buoy

2:04 - Sat 1st Oct 2016 All times are EDT. -4 hours from GMT.

  • Sig Wave height 5.6ft
  • Peak Period 8s
  • Wind
    18mph, 25mph gusts
  • Sea Temp 59°f
  • Aire Temp 57°f
  • Sea Pressure 1025.5mb
  • Buoy B01 - Western Maine Shelf
  • Buoy B01 - Western Maine Shelf

More Historic Weather Station data

Upgrade to MSW Pro to gain access to the past 30 days of data for over 8000 Wavebouys and Weather Stations around the globe.

Join Pro

Comparision Forecast

View Surf forecast
   
sáb 10/01 2:04 5.5ft 8s 18 25 mph 1025.5mb 59f 57f
1:04 6ft 6s 18 22 mph 1026mb 59f 57f
12:04 5.5ft 8s 20 22 mph 1026.4mb 59f 57f
11:04 5.5ft 6s 20 22 mph 1026.8mb 59f 56f
10:04 5.5ft 6s 18 20 mph 1027.7mb 59f 56f
9:04 5.5ft 8s 16 20 mph 1027.9mb 59f 56f
8:04 6ft 8s 18 22 mph 1027.7mb 59f 57f
7:04 5.5ft 6s 18 22 mph 1027.9mb 59f 56f
6:04 5ft 8s 18 20 mph 1027.9mb 59f 56f
5:04 5.5ft 8s 18 20 mph 1027.8mb 59f 57f
4:04 5.5ft 6s 18 20 mph 1028mb 59f 57f
3:04 4.5ft 8s 18 20 mph 1028.2mb 59f 57f
2:04 5ft 8s 16 20 mph 1028.8mb 59f 57f
1:04 4.5ft 6s 18 20 mph 1028.8mb 59f 57f
12:04 6ft 6s 16 18 mph 1029.3mb 59f 57f
vie 09/30 11:04 6.5ft 6s 16 20 mph 1029.5mb 59f 56f
10:04 6ft 6s 16 18 mph 1030mb 59f 56f
9:04 6ft 8s 16 20 mph 1030.2mb 59f 56f
8:04 6ft 8s 18 20 mph 1030.2mb 59f 56f
6:04 5.5ft 8s 20 25 mph 1030.5mb 59f 56f
5:04 6ft 11s 18 22 mph 1030.7mb 59f 56f
4:04 6ft 11s 18 20 mph 1030.9mb 59f 56f
3:04 5ft 5s 18 20 mph 1031.4mb 59f 56f
2:04 6ft 5s 18 20 mph 1031.9mb 59f 56f
1:04 6.5ft 11s 18 20 mph 1032.5mb 59f 56f
12:04 5ft 5s 18 20 mph 1032.5mb 59f 56f
11:04 5.5ft 8s 18 20 mph 1032.7mb 59f 56f
10:04 6.5ft 8s 18 22 mph 1033mb 59f 56f
9:04 7ft 11s 18 22 mph 1032.8mb 59f 56f
8:04 6ft 8s 18 22 mph 1032.7mb 59f 56f
7:04 6ft 8s 18 20 mph 1032.7mb 59f 56f
6:04 7ft 8s 18 22 mph 1032.5mb 59f 56f
5:04 7ft 8s 18 22 mph 1032.7mb 59f 57f
4:04 6.5ft 8s 18 20 mph 1032.7mb 59f 57f
3:04 6.5ft 11s 18 22 mph 1032.7mb 59f 57f
2:04 6ft 11s 18 20 mph 1032.8mb 59f 58f
1:04 6ft 11s 16 18 mph 1033.1mb 59f 58f
12:04 6ft 11s 16 18 mph 1033.5mb 59f 58f
jue 09/29 11:04 6ft 8s 18 20 mph 1033.5mb 59f 59f
10:04 6ft 8s 18 22 mph 1033.3mb 59f 59f
9:04 7ft 11s 13 16 mph 1033.2mb 59f 58f
8:04 6ft 11s 13 16 mph 1033mb 59f 58f
7:04 7ft 11s 13 18 mph 1032.8mb 59f 58f
6:04 7.5ft 11s 16 18 mph 1032.8mb 60f 58f
5:04 7ft 8s 13 16 mph 1033.2mb 60f 58f
4:04 7ft 11s 13 16 mph 1033mb 60f 58f
3:04 7.5ft 6s 13 16 mph 1032.7mb 60f 57f
2:04 7.5ft 8s 16 20 mph 1032.8mb 60f 56f
1:04 6ft 6s 20 25 mph 1033.2mb 59f 56f
12:04 6ft 5s 20 25 mph 1032.8mb 59f 55f
11:04 7ft 6s 20 25 mph 1033mb 59f 54f
10:04 7ft 6s 22 27 mph 1032.7mb 59f 53f
9:04 7ft 8s 25 27 mph 1032.2mb 59f 53f
8:04 7.5ft 8s 22 29 mph 1031.7mb 59f 54f
7:04 8ft 8s 22 27 mph 1030.9mb 59f 54f
6:04 6.5ft 6s 22 27 mph 1030.4mb 59f 55f
5:04 7ft 8s 20 25 mph 1030.1mb 59f 55f
4:04 8ft 8s 22 27 mph 1029.5mb 59f 56f
3:04 7.5ft 8s 22 25 mph 1028.8mb 59f 56f
2:04 7ft 6s 22 29 mph 1028.9mb 59f 58f
1:04 8ft 8s 22 27 mph 1028.8mb 59f 58f
12:04 9ft 8s 25 31 mph 1028.8mb 59f 58f
mié 09/28 11:04 9ft 6s 25 31 mph 1028.4mb 59f 59f
10:04 8.5ft 8s 25 31 mph 1028mb 59f 59f
9:04 8ft 6s 25 27 mph 1027.6mb 59f 58f
8:04 7ft 5s 22 27 mph 1026.7mb 59f 58f
7:04 6ft 8s 20 25 mph 1026.5mb 59f 58f
6:04 5ft 5s 18 22 mph 1026.1mb 59f 58f
5:04 6ft 8s 16 18 mph 1026mb 60f 58f
4:04 6.5ft 8s 18 20 mph 1025.5mb 60f 57f
3:04 6ft 6s 20 27 mph 1025.6mb 60f 56f
2:04 7ft 6s 22 29 mph 1025.3mb 59f 55f
1:04 6.5ft 6s 20 25 mph 1025.5mb 59f 55f
12:04 6.5ft 6s 25 29 mph 1024.9mb 59f 55f
11:04 6.5ft 5s 22 27 mph 1024.9mb 59f 55f
10:04 6ft 6s 22 27 mph 1024.8mb 59f 56f
9:04 5.5ft 5s 20 25 mph 1023.9mb 60f 56f
8:04 5ft 5s 20 27 mph 1023.1mb 60f 56f
7:04 5ft 5s 18 22 mph 1022.3mb 60f 57f
6:04 4.5ft 5s 18 22 mph 1021.5mb 60f 57f
5:04 4.5ft 5s 20 25 mph 1021mb 59f 57f
4:04 4ft 4s 18 22 mph 1020.4mb 59f 58f
3:04 4ft 8s 16 20 mph 1019.9mb 59f 58f
2:04 4ft 11s 16 18 mph 1019.3mb 59f 59f
1:04 2.5ft 6s 13 18 mph 1018.4mb 59f 60f
12:04 1.3ft 4s 11 13 mph 1017.5mb 58f 60f
mar 09/27 11:04 2ft 5s 11 13 mph 1016.8mb 58f 60f
10:04 2.5ft 5s 11
mph
1015.9mb 58f 60f
9:04 2ft 5s 11 13 mph 1015.1mb 58f 60f
8:04 2ft 5s 9 11 mph 1014.4mb 59f 60f